sensor_id;sensor_type;location;lat;lon;timestamp;P1;durP1;ratioP1;P2;durP2;ratioP2
13014;SDS011;6573;57.696;11.950;2023-02-03T00:00:13;2.17;;;1.60;;
13014;SDS011;6573;57.696;11.950;2023-02-03T00:02:42;5.27;;;1.50;;
13014;SDS011;6573;57.696;11.950;2023-02-03T00:05:11;2.47;;;1.30;;
13014;SDS011;6573;57.696;11.950;2023-02-03T00:07:39;2.93;;;1.47;;
13014;SDS011;6573;57.696;11.950;2023-02-03T00:10:11;1.90;;;1.30;;
13014;SDS011;6573;57.696;11.950;2023-02-03T00:12:39;2.03;;;1.47;;
13014;SDS011;6573;57.696;11.950;2023-02-03T00:15:08;1.90;;;1.30;;
13014;SDS011;6573;57.696;11.950;2023-02-03T00:17:37;2.10;;;1.20;;
13014;SDS011;6573;57.696;11.950;2023-02-03T00:20:05;2.10;;;1.37;;
13014;SDS011;6573;57.696;11.950;2023-02-03T00:22:34;1.80;;;1.40;;
13014;SDS011;6573;57.696;11.950;2023-02-03T00:25:03;2.10;;;1.13;;
13014;SDS011;6573;57.696;11.950;2023-02-03T00:27:33;2.80;;;1.37;;
13014;SDS011;6573;57.696;11.950;2023-02-03T00:30:02;2.53;;;1.20;;
13014;SDS011;6573;57.696;11.950;2023-02-03T00:32:31;2.20;;;1.20;;
13014;SDS011;6573;57.696;11.950;2023-02-03T00:34:59;2.30;;;1.23;;
13014;SDS011;6573;57.696;11.950;2023-02-03T00:37:27;1.80;;;1.20;;
13014;SDS011;6573;57.696;11.950;2023-02-03T00:39:55;3.07;;;1.07;;
13014;SDS011;6573;57.696;11.950;2023-02-03T00:42:24;2.80;;;1.37;;
13014;SDS011;6573;57.696;11.950;2023-02-03T00:44:56;2.53;;;1.10;;
13014;SDS011;6573;57.696;11.950;2023-02-03T00:47:25;3.00;;;1.20;;
13014;SDS011;6573;57.696;11.950;2023-02-03T00:49:53;1.93;;;1.10;;
13014;SDS011;6573;57.696;11.950;2023-02-03T00:52:21;2.30;;;1.13;;
13014;SDS011;6573;57.696;11.950;2023-02-03T00:54:50;2.00;;;1.13;;
13014;SDS011;6573;57.696;11.950;2023-02-03T00:57:18;2.30;;;1.40;;
13014;SDS011;6573;57.696;11.950;2023-02-03T00:59:46;3.33;;;2.07;;
13014;SDS011;6573;57.696;11.950;2023-02-03T01:02:16;5.63;;;1.73;;
13014;SDS011;6573;57.696;11.950;2023-02-03T01:04:45;2.20;;;1.30;;
13014;SDS011;6573;57.696;11.950;2023-02-03T01:07:13;3.83;;;1.40;;
13014;SDS011;6573;57.696;11.950;2023-02-03T01:09:42;1.27;;;1.10;;
13014;SDS011;6573;57.696;11.950;2023-02-03T01:12:10;2.07;;;1.30;;
13014;SDS011;6573;57.696;11.950;2023-02-03T01:14:38;4.13;;;1.30;;
13014;SDS011;6573;57.696;11.950;2023-02-03T01:17:06;1.50;;;1.30;;
13014;SDS011;6573;57.696;11.950;2023-02-03T01:19:36;2.73;;;1.60;;
13014;SDS011;6573;57.696;11.950;2023-02-03T01:22:04;2.90;;;1.40;;
13014;SDS011;6573;57.696;11.950;2023-02-03T01:24:33;2.80;;;1.50;;
13014;SDS011;6573;57.696;11.950;2023-02-03T01:27:01;4.53;;;1.80;;
13014;SDS011;6573;57.696;11.950;2023-02-03T01:29:29;3.40;;;1.50;;
13014;SDS011;6573;57.696;11.950;2023-02-03T01:31:59;3.33;;;1.70;;
13014;SDS011;6573;57.696;11.950;2023-02-03T01:34:28;3.53;;;1.70;;
13014;SDS011;6573;57.696;11.950;2023-02-03T01:36:58;2.83;;;1.73;;
13014;SDS011;6573;57.696;11.950;2023-02-03T01:39:27;4.93;;;1.80;;
13014;SDS011;6573;57.696;11.950;2023-02-03T01:41:55;3.30;;;1.90;;
13014;SDS011;6573;57.696;11.950;2023-02-03T01:44:40;4.73;;;2.03;;
13014;SDS011;6573;57.696;11.950;2023-02-03T01:47:11;4.90;;;2.10;;
13014;SDS011;6573;57.696;11.950;2023-02-03T01:49:44;3.97;;;2.17;;
13014;SDS011;6573;57.696;11.950;2023-02-03T01:52:17;5.20;;;2.17;;
13014;SDS011;6573;57.696;11.950;2023-02-03T01:54:46;4.47;;;2.10;;
13014;SDS011;6573;57.696;11.950;2023-02-03T01:57:18;4.13;;;2.27;;
13014;SDS011;6573;57.696;11.950;2023-02-03T01:59:50;6.00;;;2.53;;
13014;SDS011;6573;57.696;11.950;2023-02-03T02:02:20;3.13;;;2.00;;
13014;SDS011;6573;57.696;11.950;2023-02-03T02:04:51;19.97;;;3.23;;
13014;SDS011;6573;57.696;11.950;2023-02-03T02:07:25;3.43;;;3.00;;
13014;SDS011;6573;57.696;11.950;2023-02-03T02:09:53;3.40;;;2.20;;
13014;SDS011;6573;57.696;11.950;2023-02-03T02:12:22;4.00;;;2.30;;
13014;SDS011;6573;57.696;11.950;2023-02-03T02:14:50;4.07;;;2.30;;
13014;SDS011;6573;57.696;11.950;2023-02-03T02:17:23;3.70;;;2.40;;
13014;SDS011;6573;57.696;11.950;2023-02-03T02:20:09;2.83;;;2.10;;
13014;SDS011;6573;57.696;11.950;2023-02-03T02:26:27;4.27;;;2.50;;
13014;SDS011;6573;57.696;11.950;2023-02-03T02:29:31;4.07;;;2.30;;
13014;SDS011;6573;57.696;11.950;2023-02-03T02:32:29;4.07;;;2.60;;
13014;SDS011;6573;57.696;11.950;2023-02-03T02:35:10;3.60;;;2.30;;
13014;SDS011;6573;57.696;11.950;2023-02-03T02:37:48;3.40;;;2.20;;
13014;SDS011;6573;57.696;11.950;2023-02-03T02:40:21;4.10;;;2.17;;
13014;SDS011;6573;57.696;11.950;2023-02-03T02:42:59;3.33;;;2.10;;
13014;SDS011;6573;57.696;11.950;2023-02-03T02:45:36;4.33;;;2.10;;
13014;SDS011;6573;57.696;11.950;2023-02-03T02:48:14;4.13;;;2.30;;
13014;SDS011;6573;57.696;11.950;2023-02-03T02:50:50;2.30;;;1.90;;
13014;SDS011;6573;57.696;11.950;2023-02-03T02:53:21;2.93;;;2.00;;
13014;SDS011;6573;57.696;11.950;2023-02-03T02:55:52;1.97;;;1.70;;
13014;SDS011;6573;57.696;11.950;2023-02-03T02:58:23;2.40;;;1.60;;
13014;SDS011;6573;57.696;11.950;2023-02-03T03:00:53;2.50;;;1.83;;
13014;SDS011;6573;57.696;11.950;2023-02-03T03:03:24;3.53;;;1.90;;
13014;SDS011;6573;57.696;11.950;2023-02-03T03:05:54;1.90;;;1.57;;
13014;SDS011;6573;57.696;11.950;2023-02-03T03:08:24;2.97;;;1.80;;
13014;SDS011;6573;57.696;11.950;2023-02-03T03:10:58;1.97;;;1.40;;
13014;SDS011;6573;57.696;11.950;2023-02-03T03:13:29;2.03;;;1.40;;
13014;SDS011;6573;57.696;11.950;2023-02-03T03:16:04;1.53;;;1.30;;
13014;SDS011;6573;57.696;11.950;2023-02-03T03:18:37;1.60;;;1.30;;
13014;SDS011;6573;57.696;11.950;2023-02-03T03:21:11;1.83;;;1.63;;
13014;SDS011;6573;57.696;11.950;2023-02-03T03:23:43;2.13;;;1.20;;
13014;SDS011;6573;57.696;11.950;2023-02-03T03:26:16;1.37;;;1.27;;
13014;SDS011;6573;57.696;11.950;2023-02-03T03:28:49;1.83;;;1.20;;
13014;SDS011;6573;57.696;11.950;2023-02-03T03:31:21;1.97;;;1.30;;
13014;SDS011;6573;57.696;11.950;2023-02-03T03:33:51;1.43;;;1.30;;
13014;SDS011;6573;57.696;11.950;2023-02-03T03:36:21;1.30;;;1.17;;
13014;SDS011;6573;57.696;11.950;2023-02-03T03:38:55;1.30;;;1.13;;
13014;SDS011;6573;57.696;11.950;2023-02-03T03:41:34;1.20;;;1.10;;
13014;SDS011;6573;57.696;11.950;2023-02-03T03:44:09;0.90;;;0.90;;
13014;SDS011;6573;57.696;11.950;2023-02-03T03:46:42;1.73;;;1.03;;
13014;SDS011;6573;57.696;11.950;2023-02-03T03:49:17;1.60;;;1.07;;
13014;SDS011;6573;57.696;11.950;2023-02-03T03:51:48;1.70;;;1.13;;
13014;SDS011;6573;57.696;11.950;2023-02-03T03:54:21;1.50;;;1.20;;
13014;SDS011;6573;57.696;11.950;2023-02-03T03:56:53;1.83;;;1.20;;
13014;SDS011;6573;57.696;11.950;2023-02-03T03:59:27;2.13;;;1.30;;
13014;SDS011;6573;57.696;11.950;2023-02-03T04:01:59;0.80;;;0.80;;
13014;SDS011;6573;57.696;11.950;2023-02-03T04:04:32;0.87;;;0.70;;
13014;SDS011;6573;57.696;11.950;2023-02-03T04:07:03;1.00;;;0.90;;
13014;SDS011;6573;57.696;11.950;2023-02-03T04:09:31;1.27;;;0.70;;
13014;SDS011;6573;57.696;11.950;2023-02-03T04:12:02;0.83;;;0.70;;
13014;SDS011;6573;57.696;11.950;2023-02-03T04:14:32;0.80;;;0.70;;
13014;SDS011;6573;57.696;11.950;2023-02-03T04:17:03;1.03;;;0.80;;
13014;SDS011;6573;57.696;11.950;2023-02-03T04:19:33;0.87;;;0.73;;
13014;SDS011;6573;57.696;11.950;2023-02-03T04:22:01;0.60;;;0.60;;
13014;SDS011;6573;57.696;11.950;2023-02-03T04:24:29;0.70;;;0.70;;
13014;SDS011;6573;57.696;11.950;2023-02-03T04:26:58;1.00;;;0.70;;
13014;SDS011;6573;57.696;11.950;2023-02-03T04:29:26;0.80;;;0.80;;
13014;SDS011;6573;57.696;11.950;2023-02-03T04:31:54;0.90;;;0.60;;
13014;SDS011;6573;57.696;11.950;2023-02-03T04:34:23;0.70;;;0.70;;
13014;SDS011;6573;57.696;11.950;2023-02-03T04:36:53;0.60;;;0.60;;
13014;SDS011;6573;57.696;11.950;2023-02-03T04:39:21;0.53;;;0.53;;
13014;SDS011;6573;57.696;11.950;2023-02-03T04:41:49;0.50;;;0.50;;
13014;SDS011;6573;57.696;11.950;2023-02-03T04:44:18;0.90;;;0.60;;
13014;SDS011;6573;57.696;11.950;2023-02-03T04:46:46;1.03;;;0.70;;
13014;SDS011;6573;57.696;11.950;2023-02-03T04:49:14;1.90;;;0.70;;
13014;SDS011;6573;57.696;11.950;2023-02-03T04:51:43;0.87;;;0.60;;
13014;SDS011;6573;57.696;11.950;2023-02-03T04:54:12;1.13;;;0.60;;
13014;SDS011;6573;57.696;11.950;2023-02-03T04:56:41;0.73;;;0.50;;
13014;SDS011;6573;57.696;11.950;2023-02-03T04:59:10;0.47;;;0.47;;
13014;SDS011;6573;57.696;11.950;2023-02-03T05:01:38;0.50;;;0.50;;
13014;SDS011;6573;57.696;11.950;2023-02-03T05:04:06;0.60;;;0.60;;
13014;SDS011;6573;57.696;11.950;2023-02-03T05:06:35;0.40;;;0.40;;
13014;SDS011;6573;57.696;11.950;2023-02-03T05:09:03;0.50;;;0.50;;
13014;SDS011;6573;57.696;11.950;2023-02-03T05:11:33;0.40;;;0.40;;
13014;SDS011;6573;57.696;11.950;2023-02-03T05:14:02;0.77;;;0.40;;
13014;SDS011;6573;57.696;11.950;2023-02-03T05:16:30;0.50;;;0.50;;
13014;SDS011;6573;57.696;11.950;2023-02-03T05:18:59;0.47;;;0.47;;
13014;SDS011;6573;57.696;11.950;2023-02-03T05:21:27;0.40;;;0.40;;
13014;SDS011;6573;57.696;11.950;2023-02-03T05:23:56;0.57;;;0.50;;
13014;SDS011;6573;57.696;11.950;2023-02-03T05:26:25;0.37;;;0.37;;
13014;SDS011;6573;57.696;11.950;2023-02-03T05:28:55;0.50;;;0.47;;
13014;SDS011;6573;57.696;11.950;2023-02-03T05:31:23;0.47;;;0.47;;
13014;SDS011;6573;57.696;11.950;2023-02-03T05:33:51;0.40;;;0.40;;
13014;SDS011;6573;57.696;11.950;2023-02-03T05:36:20;0.40;;;0.40;;
13014;SDS011;6573;57.696;11.950;2023-02-03T05:38:48;0.83;;;0.50;;
13014;SDS011;6573;57.696;11.950;2023-02-03T05:41:16;0.30;;;0.30;;
13014;SDS011;6573;57.696;11.950;2023-02-03T05:44:03;0.50;;;0.50;;
13014;SDS011;6573;57.696;11.950;2023-02-03T05:46:32;0.40;;;0.40;;
13014;SDS011;6573;57.696;11.950;2023-02-03T05:49:00;0.27;;;0.27;;
13014;SDS011;6573;57.696;11.950;2023-02-03T05:51:28;1.03;;;0.30;;
13014;SDS011;6573;57.696;11.950;2023-02-03T05:53:57;0.40;;;0.40;;
13014;SDS011;6573;57.696;11.950;2023-02-03T05:56:25;0.27;;;0.20;;
13014;SDS011;6573;57.696;11.950;2023-02-03T05:58:53;0.40;;;0.40;;
13014;SDS011;6573;57.696;11.950;2023-02-03T06:01:23;1.40;;;0.40;;
13014;SDS011;6573;57.696;11.950;2023-02-03T06:03:52;0.30;;;0.30;;
13014;SDS011;6573;57.696;11.950;2023-02-03T06:06:20;0.97;;;0.40;;
13014;SDS011;6573;57.696;11.950;2023-02-03T06:08:49;0.30;;;0.30;;
13014;SDS011;6573;57.696;11.950;2023-02-03T06:11:21;0.77;;;0.40;;
13014;SDS011;6573;57.696;11.950;2023-02-03T06:13:51;0.30;;;0.30;;
13014;SDS011;6573;57.696;11.950;2023-02-03T06:16:19;0.40;;;0.30;;
13014;SDS011;6573;57.696;11.950;2023-02-03T06:18:49;0.30;;;0.30;;
13014;SDS011;6573;57.696;11.950;2023-02-03T06:21:18;0.47;;;0.40;;
13014;SDS011;6573;57.696;11.950;2023-02-03T06:23:46;0.20;;;0.20;;
13014;SDS011;6573;57.696;11.950;2023-02-03T06:26:15;0.40;;;0.40;;
13014;SDS011;6573;57.696;11.950;2023-02-03T06:28:44;0.60;;;0.50;;
13014;SDS011;6573;57.696;11.950;2023-02-03T06:31:12;0.40;;;0.40;;
13014;SDS011;6573;57.696;11.950;2023-02-03T06:33:40;0.30;;;0.30;;
13014;SDS011;6573;57.696;11.950;2023-02-03T06:36:12;0.53;;;0.53;;
13014;SDS011;6573;57.696;11.950;2023-02-03T06:38:40;0.63;;;0.30;;
13014;SDS011;6573;57.696;11.950;2023-02-03T06:41:09;0.50;;;0.50;;
13014;SDS011;6573;57.696;11.950;2023-02-03T06:43:37;0.30;;;0.30;;
13014;SDS011;6573;57.696;11.950;2023-02-03T06:46:05;0.47;;;0.40;;
13014;SDS011;6573;57.696;11.950;2023-02-03T06:48:34;0.40;;;0.40;;
13014;SDS011;6573;57.696;11.950;2023-02-03T06:51:02;0.30;;;0.30;;
13014;SDS011;6573;57.696;11.950;2023-02-03T06:53:32;0.50;;;0.50;;
13014;SDS011;6573;57.696;11.950;2023-02-03T06:56:00;0.40;;;0.40;;
13014;SDS011;6573;57.696;11.950;2023-02-03T06:58:29;0.40;;;0.40;;
13014;SDS011;6573;57.696;11.950;2023-02-03T07:00:57;0.37;;;0.37;;
13014;SDS011;6573;57.696;11.950;2023-02-03T07:03:25;0.40;;;0.40;;
13014;SDS011;6573;57.696;11.950;2023-02-03T07:05:54;0.50;;;0.40;;
13014;SDS011;6573;57.696;11.950;2023-02-03T07:08:22;0.50;;;0.40;;
13014;SDS011;6573;57.696;11.950;2023-02-03T07:10:53;0.60;;;0.50;;
13014;SDS011;6573;57.696;11.950;2023-02-03T07:13:21;0.50;;;0.50;;
13014;SDS011;6573;57.696;11.950;2023-02-03T07:15:50;0.40;;;0.40;;
13014;SDS011;6573;57.696;11.950;2023-02-03T07:18:18;0.30;;;0.30;;
13014;SDS011;6573;57.696;11.950;2023-02-03T07:21:10;0.40;;;0.40;;
13014;SDS011;6573;57.696;11.950;2023-02-03T07:23:39;0.57;;;0.40;;
13014;SDS011;6573;57.696;11.950;2023-02-03T07:26:09;0.50;;;0.50;;
13014;SDS011;6573;57.696;11.950;2023-02-03T07:28:38;0.47;;;0.40;;
13014;SDS011;6573;57.696;11.950;2023-02-03T07:31:07;0.50;;;0.50;;
13014;SDS011;6573;57.696;11.950;2023-02-03T07:33:36;0.40;;;0.40;;
13014;SDS011;6573;57.696;11.950;2023-02-03T07:36:05;1.30;;;0.40;;
13014;SDS011;6573;57.696;11.950;2023-02-03T07:38:34;0.40;;;0.40;;
13014;SDS011;6573;57.696;11.950;2023-02-03T07:41:04;0.60;;;0.60;;
13014;SDS011;6573;57.696;11.950;2023-02-03T07:43:34;0.60;;;0.60;;
13014;SDS011;6573;57.696;11.950;2023-02-03T07:46:03;1.13;;;0.50;;
13014;SDS011;6573;57.696;11.950;2023-02-03T07:48:31;0.73;;;0.50;;
13014;SDS011;6573;57.696;11.950;2023-02-03T07:51:00;0.50;;;0.40;;
13014;SDS011;6573;57.696;11.950;2023-02-03T07:53:28;0.67;;;0.50;;
13014;SDS011;6573;57.696;11.950;2023-02-03T07:55:58;0.40;;;0.40;;
13014;SDS011;6573;57.696;11.950;2023-02-03T07:58:27;1.70;;;0.60;;
13014;SDS011;6573;57.696;11.950;2023-02-03T08:00:58;0.60;;;0.60;;
13014;SDS011;6573;57.696;11.950;2023-02-03T08:03:26;1.17;;;0.40;;
13014;SDS011;6573;57.696;11.950;2023-02-03T08:05:54;0.67;;;0.50;;
13014;SDS011;6573;57.696;11.950;2023-02-03T08:08:23;0.60;;;0.60;;
13014;SDS011;6573;57.696;11.950;2023-02-03T08:10:53;1.40;;;0.50;;
13014;SDS011;6573;57.696;11.950;2023-02-03T08:13:23;0.63;;;0.40;;
13014;SDS011;6573;57.696;11.950;2023-02-03T08:15:51;0.50;;;0.50;;
13014;SDS011;6573;57.696;11.950;2023-02-03T08:18:21;0.50;;;0.50;;
13014;SDS011;6573;57.696;11.950;2023-02-03T08:20:49;0.67;;;0.50;;
13014;SDS011;6573;57.696;11.950;2023-02-03T08:23:18;4.23;;;2.43;;
13014;SDS011;6573;57.696;11.950;2023-02-03T08:25:49;2.47;;;0.80;;
13014;SDS011;6573;57.696;11.950;2023-02-03T08:28:18;1.63;;;0.67;;
13014;SDS011;6573;57.696;11.950;2023-02-03T08:30:46;0.40;;;0.40;;
13014;SDS011;6573;57.696;11.950;2023-02-03T08:33:15;0.50;;;0.50;;
13014;SDS011;6573;57.696;11.950;2023-02-03T08:35:45;0.40;;;0.40;;
13014;SDS011;6573;57.696;11.950;2023-02-03T08:38:15;0.60;;;0.60;;
13014;SDS011;6573;57.696;11.950;2023-02-03T08:40:44;2.00;;;0.63;;
13014;SDS011;6573;57.696;11.950;2023-02-03T08:43:14;1.07;;;0.40;;
13014;SDS011;6573;57.696;11.950;2023-02-03T08:45:43;0.80;;;0.40;;
13014;SDS011;6573;57.696;11.950;2023-02-03T08:48:11;0.60;;;0.60;;
13014;SDS011;6573;57.696;11.950;2023-02-03T08:50:40;0.97;;;0.60;;
13014;SDS011;6573;57.696;11.950;2023-02-03T08:53:11;0.80;;;0.40;;
13014;SDS011;6573;57.696;11.950;2023-02-03T08:55:39;0.40;;;0.40;;
13014;SDS011;6573;57.696;11.950;2023-02-03T08:58:07;0.50;;;0.50;;
13014;SDS011;6573;57.696;11.950;2023-02-03T09:00:36;0.40;;;0.40;;
13014;SDS011;6573;57.696;11.950;2023-02-03T09:03:08;0.67;;;0.50;;
13014;SDS011;6573;57.696;11.950;2023-02-03T09:05:36;0.50;;;0.50;;
13014;SDS011;6573;57.696;11.950;2023-02-03T09:08:05;0.70;;;0.67;;
13014;SDS011;6573;57.696;11.950;2023-02-03T09:10:34;1.00;;;0.70;;
13014;SDS011;6573;57.696;11.950;2023-02-03T09:13:03;1.20;;;0.50;;
13014;SDS011;6573;57.696;11.950;2023-02-03T09:15:31;1.10;;;0.70;;
13014;SDS011;6573;57.696;11.950;2023-02-03T09:18:00;1.23;;;0.50;;
13014;SDS011;6573;57.696;11.950;2023-02-03T09:20:28;0.73;;;0.50;;
13014;SDS011;6573;57.696;11.950;2023-02-03T09:22:57;1.77;;;0.67;;
13014;SDS011;6573;57.696;11.950;2023-02-03T09:25:26;2.30;;;0.93;;
13014;SDS011;6573;57.696;11.950;2023-02-03T09:27:56;1.80;;;0.63;;
13014;SDS011;6573;57.696;11.950;2023-02-03T09:30:26;0.80;;;0.50;;
13014;SDS011;6573;57.696;11.950;2023-02-03T09:32:55;0.67;;;0.50;;
13014;SDS011;6573;57.696;11.950;2023-02-03T09:35:24;0.57;;;0.53;;
13014;SDS011;6573;57.696;11.950;2023-02-03T09:37:55;3.20;;;1.10;;
13014;SDS011;6573;57.696;11.950;2023-02-03T09:40:26;1.60;;;0.90;;
13014;SDS011;6573;57.696;11.950;2023-02-03T09:43:06;1.97;;;0.70;;
13014;SDS011;6573;57.696;11.950;2023-02-03T09:45:43;1.53;;;0.80;;
13014;SDS011;6573;57.696;11.950;2023-02-03T09:48:13;0.87;;;0.70;;
13014;SDS011;6573;57.696;11.950;2023-02-03T09:50:46;1.00;;;0.73;;
13014;SDS011;6573;57.696;11.950;2023-02-03T09:53:20;1.80;;;0.80;;
13014;SDS011;6573;57.696;11.950;2023-02-03T09:55:55;1.67;;;0.90;;
13014;SDS011;6573;57.696;11.950;2023-02-03T09:58:26;1.10;;;0.90;;
13014;SDS011;6573;57.696;11.950;2023-02-03T10:01:00;3.17;;;1.30;;
13014;SDS011;6573;57.696;11.950;2023-02-03T10:03:34;3.30;;;1.30;;
13014;SDS011;6573;57.696;11.950;2023-02-03T10:06:11;2.50;;;1.00;;
13014;SDS011;6573;57.696;11.950;2023-02-03T10:11:49;5.00;;;1.60;;
13014;SDS011;6573;57.696;11.950;2023-02-03T10:14:45;3.17;;;1.37;;
13014;SDS011;6573;57.696;11.950;2023-02-03T10:17:24;2.13;;;1.17;;
13014;SDS011;6573;57.696;11.950;2023-02-03T10:19:59;1.50;;;1.03;;
13014;SDS011;6573;57.696;11.950;2023-02-03T10:22:32;3.73;;;2.73;;
13014;SDS011;6573;57.696;11.950;2023-02-03T10:25:06;1.60;;;0.80;;
13014;SDS011;6573;57.696;11.950;2023-02-03T10:27:46;1.23;;;0.80;;
13014;SDS011;6573;57.696;11.950;2023-02-03T10:30:18;1.13;;;0.77;;
13014;SDS011;6573;57.696;11.950;2023-02-03T10:32:48;2.87;;;0.77;;
13014;SDS011;6573;57.696;11.950;2023-02-03T10:35:18;1.87;;;0.90;;
13014;SDS011;6573;57.696;11.950;2023-02-03T10:37:48;3.23;;;1.50;;
13014;SDS011;6573;57.696;11.950;2023-02-03T10:40:21;1.37;;;0.80;;
13014;SDS011;6573;57.696;11.950;2023-02-03T10:42:54;2.30;;;1.23;;
13014;SDS011;6573;57.696;11.950;2023-02-03T10:45:41;2.47;;;1.27;;
13014;SDS011;6573;57.696;11.950;2023-02-03T10:48:11;3.07;;;1.10;;
13014;SDS011;6573;57.696;11.950;2023-02-03T10:50:44;2.70;;;1.00;;
13014;SDS011;6573;57.696;11.950;2023-02-03T10:53:19;1.33;;;1.10;;
13014;SDS011;6573;57.696;11.950;2023-02-03T10:55:50;2.87;;;1.63;;
13014;SDS011;6573;57.696;11.950;2023-02-03T10:58:28;2.10;;;1.40;;
13014;SDS011;6573;57.696;11.950;2023-02-03T11:01:05;2.53;;;1.20;;
13014;SDS011;6573;57.696;11.950;2023-02-03T11:03:37;3.50;;;1.70;;
13014;SDS011;6573;57.696;11.950;2023-02-03T11:06:10;3.13;;;1.50;;
13014;SDS011;6573;57.696;11.950;2023-02-03T11:08:41;1.10;;;0.83;;
13014;SDS011;6573;57.696;11.950;2023-02-03T11:11:12;4.20;;;1.30;;
13014;SDS011;6573;57.696;11.950;2023-02-03T11:13:42;1.37;;;1.00;;
13014;SDS011;6573;57.696;11.950;2023-02-03T11:16:12;4.40;;;1.27;;
13014;SDS011;6573;57.696;11.950;2023-02-03T11:18:44;1.20;;;0.80;;
13014;SDS011;6573;57.696;11.950;2023-02-03T11:21:19;2.03;;;0.87;;
13014;SDS011;6573;57.696;11.950;2023-02-03T11:23:51;3.13;;;1.20;;
13014;SDS011;6573;57.696;11.950;2023-02-03T11:26:23;2.37;;;1.20;;
13014;SDS011;6573;57.696;11.950;2023-02-03T11:28:55;1.40;;;1.00;;
13014;SDS011;6573;57.696;11.950;2023-02-03T11:31:28;2.00;;;1.80;;
13014;SDS011;6573;57.696;11.950;2023-02-03T11:33:59;4.30;;;2.30;;
13014;SDS011;6573;57.696;11.950;2023-02-03T11:36:30;3.20;;;1.17;;
13014;SDS011;6573;57.696;11.950;2023-02-03T11:42:01;3.87;;;2.53;;
13014;SDS011;6573;57.696;11.950;2023-02-03T11:44:43;3.03;;;1.50;;
13014;SDS011;6573;57.696;11.950;2023-02-03T11:47:13;2.90;;;1.67;;
13014;SDS011;6573;57.696;11.950;2023-02-03T11:52:55;1.90;;;1.20;;
13014;SDS011;6573;57.696;11.950;2023-02-03T11:55:41;3.73;;;1.33;;
13014;SDS011;6573;57.696;11.950;2023-02-03T11:58:35;1.83;;;0.90;;
13014;SDS011;6573;57.696;11.950;2023-02-03T12:01:22;2.80;;;1.10;;
13014;SDS011;6573;57.696;11.950;2023-02-03T12:04:09;2.00;;;0.90;;
13014;SDS011;6573;57.696;11.950;2023-02-03T12:07:22;2.73;;;0.90;;
13014;SDS011;6573;57.696;11.950;2023-02-03T12:10:00;1.87;;;1.10;;
13014;SDS011;6573;57.696;11.950;2023-02-03T12:12:39;1.40;;;1.00;;
13014;SDS011;6573;57.696;11.950;2023-02-03T12:15:27;7.17;;;3.47;;
13014;SDS011;6573;57.696;11.950;2023-02-03T12:18:30;4.57;;;2.03;;
13014;SDS011;6573;57.696;11.950;2023-02-03T12:21:08;3.40;;;1.60;;
13014;SDS011;6573;57.696;11.950;2023-02-03T12:23:54;7.37;;;2.23;;
13014;SDS011;6573;57.696;11.950;2023-02-03T12:26:31;3.17;;;1.20;;
13014;SDS011;6573;57.696;11.950;2023-02-03T12:29:05;2.60;;;1.20;;
13014;SDS011;6573;57.696;11.950;2023-02-03T12:31:39;3.53;;;1.50;;
13014;SDS011;6573;57.696;11.950;2023-02-03T12:34:16;4.37;;;1.70;;
13014;SDS011;6573;57.696;11.950;2023-02-03T12:36:50;2.03;;;1.23;;
13014;SDS011;6573;57.696;11.950;2023-02-03T12:39:25;4.00;;;1.63;;
13014;SDS011;6573;57.696;11.950;2023-02-03T12:41:59;2.53;;;1.77;;
13014;SDS011;6573;57.696;11.950;2023-02-03T12:44:32;2.27;;;1.07;;
13014;SDS011;6573;57.696;11.950;2023-02-03T12:47:10;2.00;;;1.07;;
13014;SDS011;6573;57.696;11.950;2023-02-03T12:49:44;3.97;;;1.70;;
13014;SDS011;6573;57.696;11.950;2023-02-03T12:52:20;2.73;;;1.23;;
13014;SDS011;6573;57.696;11.950;2023-02-03T12:54:55;2.47;;;0.90;;
13014;SDS011;6573;57.696;11.950;2023-02-03T12:57:34;2.20;;;1.10;;
13014;SDS011;6573;57.696;11.950;2023-02-03T13:00:17;3.93;;;1.60;;
13014;SDS011;6573;57.696;11.950;2023-02-03T13:02:59;2.33;;;1.40;;
13014;SDS011;6573;57.696;11.950;2023-02-03T13:05:38;4.13;;;1.30;;
13014;SDS011;6573;57.696;11.950;2023-02-03T13:08:16;2.83;;;1.07;;
13014;SDS011;6573;57.696;11.950;2023-02-03T13:10:51;3.40;;;1.20;;
13014;SDS011;6573;57.696;11.950;2023-02-03T13:13:30;3.50;;;1.10;;
13014;SDS011;6573;57.696;11.950;2023-02-03T13:16:06;2.50;;;1.23;;
13014;SDS011;6573;57.696;11.950;2023-02-03T13:18:39;1.87;;;0.77;;
13014;SDS011;6573;57.696;11.950;2023-02-03T13:21:10;2.13;;;0.73;;
13014;SDS011;6573;57.696;11.950;2023-02-03T13:23:41;2.90;;;0.50;;
13014;SDS011;6573;57.696;11.950;2023-02-03T13:26:27;3.03;;;0.73;;
13014;SDS011;6573;57.696;11.950;2023-02-03T13:29:14;1.87;;;0.70;;
13014;SDS011;6573;57.696;11.950;2023-02-03T13:32:03;1.33;;;0.70;;
13014;SDS011;6573;57.696;11.950;2023-02-03T13:34:48;0.80;;;0.70;;
13014;SDS011;6573;57.696;11.950;2023-02-03T13:40:31;2.70;;;0.80;;
13014;SDS011;6573;57.696;11.950;2023-02-03T13:43:10;1.20;;;0.80;;
13014;SDS011;6573;57.696;11.950;2023-02-03T13:45:57;1.17;;;0.90;;
13014;SDS011;6573;57.696;11.950;2023-02-03T13:48:27;2.77;;;0.77;;
13014;SDS011;6573;57.696;11.950;2023-02-03T13:51:01;4.23;;;1.07;;
13014;SDS011;6573;57.696;11.950;2023-02-03T13:53:34;4.17;;;1.20;;
13014;SDS011;6573;57.696;11.950;2023-02-03T13:56:07;2.53;;;1.30;;
13014;SDS011;6573;57.696;11.950;2023-02-03T13:58:45;3.97;;;1.40;;
13014;SDS011;6573;57.696;11.950;2023-02-03T14:01:28;3.23;;;1.50;;
13014;SDS011;6573;57.696;11.950;2023-02-03T14:04:00;3.10;;;1.50;;
13014;SDS011;6573;57.696;11.950;2023-02-03T14:09:39;4.47;;;1.27;;
13014;SDS011;6573;57.696;11.950;2023-02-03T14:12:17;2.70;;;1.20;;
13014;SDS011;6573;57.696;11.950;2023-02-03T14:14:57;6.83;;;3.53;;
13014;SDS011;6573;57.696;11.950;2023-02-03T14:23:44;3.73;;;1.30;;
13014;SDS011;6573;57.696;11.950;2023-02-03T14:26:30;4.47;;;1.33;;
13014;SDS011;6573;57.696;11.950;2023-02-03T14:29:05;3.30;;;1.10;;
13014;SDS011;6573;57.696;11.950;2023-02-03T14:31:51;3.60;;;1.70;;
13014;SDS011;6573;57.696;11.950;2023-02-03T14:34:29;4.83;;;2.20;;
13014;SDS011;6573;57.696;11.950;2023-02-03T14:37:12;2.93;;;1.33;;
13014;SDS011;6573;57.696;11.950;2023-02-03T14:40:05;3.23;;;1.30;;
13014;SDS011;6573;57.696;11.950;2023-02-03T14:46:13;2.37;;;1.03;;
13014;SDS011;6573;57.696;11.950;2023-02-03T14:54:52;2.23;;;1.40;;
13014;SDS011;6573;57.696;11.950;2023-02-03T14:57:36;2.13;;;1.60;;
13014;SDS011;6573;57.696;11.950;2023-02-03T15:00:24;2.10;;;1.13;;
13014;SDS011;6573;57.696;11.950;2023-02-03T15:06:00;2.90;;;2.57;;
13014;SDS011;6573;57.696;11.950;2023-02-03T15:08:32;3.33;;;1.97;;
13014;SDS011;6573;57.696;11.950;2023-02-03T15:11:15;2.47;;;1.40;;
13014;SDS011;6573;57.696;11.950;2023-02-03T15:13:50;3.40;;;1.10;;
13014;SDS011;6573;57.696;11.950;2023-02-03T15:16:20;2.33;;;1.10;;
13014;SDS011;6573;57.696;11.950;2023-02-03T15:18:54;3.03;;;1.47;;
13014;SDS011;6573;57.696;11.950;2023-02-03T15:21:25;2.40;;;1.57;;
13014;SDS011;6573;57.696;11.950;2023-02-03T15:23:53;2.90;;;1.70;;
13014;SDS011;6573;57.696;11.950;2023-02-03T15:26:22;1.80;;;1.40;;
13014;SDS011;6573;57.696;11.950;2023-02-03T15:28:53;3.43;;;1.50;;
13014;SDS011;6573;57.696;11.950;2023-02-03T15:31:30;3.83;;;2.43;;
13014;SDS011;6573;57.696;11.950;2023-02-03T15:34:08;2.20;;;1.70;;
13014;SDS011;6573;57.696;11.950;2023-02-03T15:36:45;3.77;;;2.47;;
13014;SDS011;6573;57.696;11.950;2023-02-03T15:39:18;3.17;;;2.23;;
13014;SDS011;6573;57.696;11.950;2023-02-03T15:41:53;3.00;;;2.00;;
13014;SDS011;6573;57.696;11.950;2023-02-03T15:44:25;4.63;;;1.87;;
13014;SDS011;6573;57.696;11.950;2023-02-03T15:46:57;3.13;;;2.13;;
13014;SDS011;6573;57.696;11.950;2023-02-03T15:49:32;2.47;;;2.27;;
13014;SDS011;6573;57.696;11.950;2023-02-03T15:52:07;3.90;;;2.27;;
13014;SDS011;6573;57.696;11.950;2023-02-03T15:54:41;4.00;;;2.40;;
13014;SDS011;6573;57.696;11.950;2023-02-03T15:57:19;4.67;;;2.80;;